LEMH/MAH METAR and TAF weather

Enter ICAO airport designator
Station Type Date Time Source
LEMH METAR 2019/05/19 20:00 UTC NOAA

LEMH 192000Z 31003KT 9999 FEW030 13/09 Q1011


Station Type Date Time Source
LEMH Decoded METAR 2019/05/19 20:00 UTC NOAA

Menorca / Mahon, Spain (LEMH) 39-52N 004-14E 82M
May 19, 2019 - 04:00 PM EDT / 2019.05.19 2000 UTC
Wind: from the NW (310 degrees) at 3 MPH (3 KT):0
Visibility: greater than 7 mile(s):0
Sky conditions: mostly clear
Temperature: 55 F (13 C)
Dew Point: 48 F (9 C)
Relative Humidity: 76%
Pressure (altimeter): 29.85 in. Hg (1011 hPa)
ob: LEMH 192000Z 31003KT 9999 FEW030 13/09 Q1011
cycle: 20

Station Type Date Time Source
LEMH TAF 2019/05/19 21:27 UTC NOAA

TAF LEMH 192000Z 1921/2021 32006KT 9999 FEW030 TX21/2012Z TN10/2006Z PROB40
TEMPO 1922/2004 4000 SHRA SCT025TCU BKN030
BECMG 2005/2008 23010KT

Example: see airport list